Time;durP1;ratioP1;P1;durP2;ratioP2;P2;SDS_P1;SDS_P2;PMS_P1;PMS_P2;Temp;Humidity;BMP_temperature;BMP_pressure;BME280_temperature;BME280_humidity;BME280_pressure;Samples;Min_cycle;Max_cycle;Signal;HPM_P1;HPM_P2
2024/01/04 00:01:22;;;;;;;0.40;0.40;;;7.20;99.90;;;;;;5036985;28;20223;-88
2024/01/04 00:03:49;;;;;;;0.50;0.50;;;7.20;99.90;;;;;;5012950;28;20228;-87
2024/01/04 00:06:17;;;;;;;0.40;0.40;;;7.20;99.90;;;;;;5020754;28;20674;-87
2024/01/04 00:08:43;;;;;;;0.40;0.40;;;7.30;99.90;;;;;;5019917;28;20228;-87
2024/01/04 00:11:10;;;;;;;1.30;0.50;;;7.30;99.90;;;;;;5020490;28;20200;-86
2024/01/04 00:13:37;;;;;;;0.40;0.30;;;7.40;99.90;;;;;;5019724;28;20225;-86
2024/01/04 00:16:08;;;;;;;0.40;0.40;;;7.40;99.90;;;;;;5017362;28;20208;-85
2024/01/04 00:18:36;;;;;;;0.40;0.40;;;7.40;99.90;;;;;;5016517;28;20204;-84
2024/01/04 00:21:03;;;;;;;0.88;0.88;;;7.40;99.90;;;;;;5016951;28;20189;-84
2024/01/04 00:23:31;;;;;;;0.60;0.60;;;7.50;99.90;;;;;;5016041;28;20216;-87
2024/01/04 00:25:58;;;;;;;0.50;0.50;;;7.50;99.90;;;;;;5016168;28;20188;-85
2024/01/04 00:28:25;;;;;;;1.80;1.80;;;7.50;99.90;;;;;;5016198;28;20201;-85
2024/01/04 00:30:51;;;;;;;0.40;0.40;;;7.50;99.90;;;;;;5016434;28;20270;-84
2024/01/04 00:33:18;;;;;;;0.40;0.40;;;7.50;99.90;;;;;;5023352;28;20203;-84
2024/01/04 00:35:46;;;;;;;1.13;1.13;;;7.50;99.90;;;;;;5035494;28;20196;-86
2024/01/04 00:38:13;;;;;;;0.82;0.82;;;7.50;99.90;;;;;;5035393;28;20196;-85
2024/01/04 00:40:40;;;;;;;0.70;0.60;;;7.60;99.90;;;;;;5035522;28;20196;-84
2024/01/04 00:43:06;;;;;;;0.40;0.40;;;7.60;99.90;;;;;;5035494;28;20192;-85
2024/01/04 00:45:33;;;;;;;0.50;0.40;;;7.60;99.90;;;;;;5018114;28;20239;-84
2024/01/04 00:48:01;;;;;;;0.93;0.93;;;7.60;99.90;;;;;;5015323;28;20197;-85
2024/01/04 00:50:28;;;;;;;0.57;0.57;;;7.60;99.90;;;;;;5015613;28;20595;-83
2024/01/04 00:52:56;;;;;;;0.85;0.85;;;7.60;99.90;;;;;;5016325;28;20193;-86
2024/01/04 00:55:23;;;;;;;0.50;0.45;;;7.60;99.90;;;;;;5015690;28;20303;-84
2024/01/04 00:57:50;;;;;;;2.90;0.95;;;7.60;99.90;;;;;;5018756;28;20198;-84
2024/01/04 01:00:17;;;;;;;0.60;0.60;;;7.60;99.90;;;;;;5036734;28;20231;-86
2024/01/04 01:02:44;;;;;;;0.60;0.60;;;7.60;99.90;;;;;;5038613;28;20238;-86
2024/01/04 01:05:11;;;;;;;0.40;0.40;;;7.70;99.90;;;;;;5037893;28;20233;-84
2024/01/04 01:07:37;;;;;;;0.70;0.65;;;7.70;99.90;;;;;;5037344;28;20223;-85
2024/01/04 01:10:06;;;;;;;0.75;0.75;;;7.70;99.90;;;;;;5037707;28;20685;-86
2024/01/04 01:12:33;;;;;;;0.40;0.40;;;7.70;99.90;;;;;;5037488;28;20196;-86
2024/01/04 01:15:00;;;;;;;0.50;0.50;;;7.70;99.90;;;;;;5036442;28;20216;-85
2024/01/04 01:17:27;;;;;;;0.40;0.40;;;7.70;99.90;;;;;;5037018;28;20199;-86
2024/01/04 01:19:53;;;;;;;0.63;0.63;;;7.70;99.90;;;;;;5036290;28;20551;-84
2024/01/04 01:22:20;;;;;;;2.58;2.00;;;7.70;99.90;;;;;;5036412;28;20220;-85
2024/01/04 01:24:47;;;;;;;1.25;1.08;;;7.70;99.90;;;;;;5035949;28;20223;-85
2024/01/04 01:27:14;;;;;;;0.45;0.40;;;7.60;99.90;;;;;;5035814;28;20207;-86
2024/01/04 01:29:41;;;;;;;0.40;0.40;;;7.60;99.90;;;;;;5035857;28;20663;-85
2024/01/04 01:32:08;;;;;;;0.40;0.38;;;7.60;99.90;;;;;;5036353;28;20223;-87
2024/01/04 01:34:34;;;;;;;0.50;0.40;;;7.50;99.90;;;;;;5035753;28;20591;-85
2024/01/04 01:37:01;;;;;;;0.50;0.50;;;7.50;99.90;;;;;;5035591;28;20192;-84
2024/01/04 01:39:27;;;;;;;0.40;0.40;;;7.50;99.90;;;;;;5035750;28;20202;-84
2024/01/04 01:41:53;;;;;;;0.63;0.50;;;7.50;99.90;;;;;;5036545;28;20188;-86
2024/01/04 01:44:21;;;;;;;0.40;0.40;;;7.50;99.90;;;;;;5035693;28;20223;-84
2024/01/04 01:46:48;;;;;;;1.33;1.23;;;7.50;99.90;;;;;;5035876;28;20203;-85
2024/01/04 01:49:15;;;;;;;0.40;0.30;;;7.40;99.90;;;;;;5035866;28;20200;-86
2024/01/04 01:51:42;;;;;;;0.40;0.40;;;7.40;99.90;;;;;;5035545;28;20698;-85
2024/01/04 01:54:10;;;;;;;0.40;0.35;;;7.40;99.90;;;;;;5035011;28;20217;-85
2024/01/04 01:56:37;;;;;;;0.50;0.40;;;7.40;99.90;;;;;;5034706;28;20232;-86
2024/01/04 01:59:04;;;;;;;0.45;0.45;;;7.40;99.90;;;;;;5035092;28;20188;-86
2024/01/04 02:01:32;;;;;;;0.82;0.50;;;7.40;99.90;;;;;;5034546;28;20206;-85
2024/01/04 02:03:59;;;;;;;0.40;0.40;;;7.40;99.90;;;;;;5034927;28;20212;-83
2024/01/04 02:06:25;;;;;;;0.50;0.50;;;7.40;99.90;;;;;;5019958;28;20197;-86
2024/01/04 02:08:52;;;;;;;0.50;0.50;;;7.50;99.90;;;;;;5015502;28;20199;-84
2024/01/04 02:11:19;;;;;;;0.82;0.82;;;7.50;99.90;;;;;;5015545;28;20193;-84
2024/01/04 02:13:46;;;;;;;1.20;1.05;;;7.40;99.90;;;;;;5015603;28;20232;-86
2024/01/04 02:16:12;;;;;;;1.05;0.73;;;7.50;99.90;;;;;;5029491;28;20634;-86
2024/01/04 02:18:41;;;;;;;0.77;0.77;;;7.50;99.90;;;;;;5035006;28;20203;-85
2024/01/04 02:21:09;;;;;;;0.50;0.45;;;7.50;99.90;;;;;;5035524;28;20199;-86
2024/01/04 02:23:37;;;;;;;0.88;0.88;;;7.50;99.90;;;;;;5035738;28;22002;-83
2024/01/04 02:26:04;;;;;;;0.40;0.40;;;7.50;99.90;;;;;;5034907;28;20188;-85
2024/01/04 02:28:31;;;;;;;1.65;1.25;;;7.50;99.90;;;;;;5034773;28;20226;-86
2024/01/04 02:30:57;;;;;;;5.95;1.77;;;7.50;99.90;;;;;;5034666;28;20192;-85
2024/01/04 02:33:24;;;;;;;0.60;0.60;;;7.50;99.90;;;;;;5034581;28;20575;-85
2024/01/04 02:35:51;;;;;;;0.40;0.30;;;7.50;99.90;;;;;;5033896;28;20195;-85
2024/01/04 02:38:18;;;;;;;0.40;0.35;;;7.50;99.90;;;;;;5034649;28;20549;-85
2024/01/04 02:40:46;;;;;;;0.50;0.50;;;7.50;99.90;;;;;;5033845;28;20195;-84
2024/01/04 02:43:13;;;;;;;2.45;0.60;;;7.50;99.90;;;;;;5033536;28;20203;-84
2024/01/04 02:45:40;;;;;;;0.40;0.40;;;7.50;99.90;;;;;;5033437;28;20231;-83
2024/01/04 02:48:07;;;;;;;2.22;1.05;;;7.60;99.90;;;;;;5033471;28;20210;-82
2024/01/04 02:50:34;;;;;;;0.40;0.40;;;7.60;99.90;;;;;;5033575;28;20648;-84
2024/01/04 02:53:00;;;;;;;0.93;0.93;;;7.60;99.90;;;;;;5033647;28;20207;-84
2024/01/04 02:55:27;;;;;;;0.40;0.40;;;7.50;99.90;;;;;;5033623;28;20207;-82
2024/01/04 02:57:55;;;;;;;0.50;0.50;;;7.50;99.90;;;;;;5033487;28;20210;-85
2024/01/04 03:00:22;;;;;;;0.40;0.40;;;7.50;99.90;;;;;;5033273;28;20692;-85
2024/01/04 03:02:49;;;;;;;0.98;0.70;;;7.50;99.90;;;;;;5033460;28;20349;-84
2024/01/04 03:05:18;;;;;;;0.50;0.40;;;7.50;99.90;;;;;;5032971;28;20219;-84
2024/01/04 03:07:44;;;;;;;0.50;0.40;;;7.50;99.90;;;;;;5033176;28;20202;-83
2024/01/04 03:10:11;;;;;;;0.40;0.40;;;7.50;99.90;;;;;;5033017;28;20261;-84
2024/01/04 03:12:38;;;;;;;0.40;0.40;;;7.50;99.90;;;;;;5032750;28;20200;-85
2024/01/04 03:15:08;;;;;;;0.50;0.45;;;7.50;99.90;;;;;;5009362;28;20208;-84
2024/01/04 03:17:35;;;;;;;0.40;0.40;;;7.50;99.90;;;;;;5017421;28;20196;-83
2024/01/04 03:20:02;;;;;;;0.40;0.30;;;7.40;99.90;;;;;;5017549;28;20211;-84
2024/01/04 03:22:29;;;;;;;2.35;0.50;;;7.40;99.90;;;;;;5017508;28;20192;-84
2024/01/04 03:24:55;;;;;;;0.40;0.40;;;7.40;99.90;;;;;;5035407;28;20224;-86
2024/01/04 03:27:22;;;;;;;0.40;0.35;;;7.40;99.90;;;;;;5036816;28;20215;-82
2024/01/04 03:29:50;;;;;;;0.40;0.40;;;7.40;99.90;;;;;;5036836;28;20591;-85
2024/01/04 03:32:18;;;;;;;0.60;0.50;;;7.40;99.90;;;;;;5036956;28;20206;-85
2024/01/04 03:34:44;;;;;;;0.60;0.50;;;7.40;99.90;;;;;;5036404;28;20216;-83
2024/01/04 03:37:11;;;;;;;0.40;0.40;;;7.30;99.90;;;;;;5036758;28;20211;-85
2024/01/04 03:39:38;;;;;;;0.60;0.60;;;7.30;99.90;;;;;;5037406;28;20571;-85
2024/01/04 03:42:05;;;;;;;1.60;1.05;;;7.30;99.90;;;;;;5036233;28;20195;-84
2024/01/04 03:44:32;;;;;;;0.40;0.40;;;7.20;99.90;;;;;;5036180;28;20226;-83
2024/01/04 03:46:58;;;;;;;0.40;0.40;;;7.20;99.90;;;;;;5036040;28;20574;-84
2024/01/04 03:49:26;;;;;;;0.50;0.40;;;7.20;99.90;;;;;;5036409;28;20198;-82
2024/01/04 03:51:53;;;;;;;0.50;0.50;;;7.20;99.90;;;;;;5036223;28;20196;-83
2024/01/04 03:54:20;;;;;;;0.65;0.65;;;7.20;99.90;;;;;;5036496;28;20218;-82
2024/01/04 03:56:47;;;;;;;1.05;0.70;;;7.10;99.90;;;;;;5037062;28;20200;-86
2024/01/04 03:59:13;;;;;;;0.50;0.40;;;7.10;99.90;;;;;;5036025;28;20559;-83
2024/01/04 04:01:44;;;;;;;1.05;1.05;;;7.10;99.90;;;;;;5036564;28;20598;-85
2024/01/04 04:04:11;;;;;;;0.40;0.40;;;7.10;99.90;;;;;;5035942;28;20216;-84
2024/01/04 04:06:39;;;;;;;0.50;0.50;;;7.10;99.90;;;;;;5035451;28;20203;-83
2024/01/04 04:09:07;;;;;;;0.40;0.40;;;7.00;99.90;;;;;;5035613;28;20200;-84
2024/01/04 04:11:34;;;;;;;0.40;0.40;;;7.00;99.90;;;;;;5037893;28;20602;-87
2024/01/04 04:14:01;;;;;;;1.67;1.30;;;7.00;99.90;;;;;;5039358;28;20730;-87
2024/01/04 04:16:28;;;;;;;0.82;0.82;;;7.00;99.90;;;;;;5039485;28;20192;-85
2024/01/04 04:18:55;;;;;;;0.40;0.40;;;7.00;99.90;;;;;;5037232;28;20634;-83
2024/01/04 04:21:23;;;;;;;0.40;0.40;;;7.00;99.90;;;;;;5036547;28;20204;-83
2024/01/04 04:23:51;;;;;;;0.40;0.40;;;7.00;99.90;;;;;;5036501;28;20227;-86
2024/01/04 04:26:18;;;;;;;1.83;1.38;;;7.00;99.90;;;;;;5036269;28;20215;-85
2024/01/04 04:28:45;;;;;;;0.40;0.40;;;7.00;99.90;;;;;;5036100;28;20667;-84
2024/01/04 04:31:15;;;;;;;0.57;0.50;;;7.00;99.90;;;;;;5007875;28;20197;-84
2024/01/04 04:33:42;;;;;;;0.40;0.40;;;7.00;99.90;;;;;;5016185;28;20221;-86
2024/01/04 04:36:09;;;;;;;0.57;0.50;;;7.00;99.90;;;;;;5015767;28;20212;-84
2024/01/04 04:38:35;;;;;;;0.40;0.40;;;7.00;99.90;;;;;;5016001;28;20196;-83
2024/01/04 04:41:05;;;;;;;0.40;0.40;;;7.00;99.90;;;;;;5016857;28;20203;-85
2024/01/04 04:43:31;;;;;;;0.40;0.32;;;7.00;99.90;;;;;;5016443;28;20204;-82
2024/01/04 04:45:59;;;;;;;0.40;0.40;;;6.90;99.90;;;;;;5015331;28;20879;-84
2024/01/04 04:48:26;;;;;;;0.40;0.40;;;6.90;99.90;;;;;;5020981;28;20218;-82
2024/01/04 04:50:53;;;;;;;0.40;0.30;;;7.00;99.90;;;;;;5035710;28;20877;-84
2024/01/04 04:53:20;;;;;;;0.40;0.40;;;7.00;99.90;;;;;;5035375;28;20199;-84
2024/01/04 04:55:47;;;;;;;0.40;0.40;;;7.00;99.90;;;;;;5035841;28;20199;-84
2024/01/04 04:58:15;;;;;;;0.40;0.40;;;7.00;99.90;;;;;;5036077;28;20192;-85
2024/01/04 05:00:42;;;;;;;0.40;0.38;;;7.00;99.90;;;;;;5035711;28;20200;-84
2024/01/04 05:03:08;;;;;;;0.40;0.30;;;7.00;99.90;;;;;;5035452;28;20192;-84
2024/01/04 05:05:35;;;;;;;0.40;0.40;;;7.00;99.90;;;;;;5034973;28;20216;-83
2024/01/04 05:08:04;;;;;;;0.40;0.40;;;7.00;99.90;;;;;;5035182;28;20200;-82
2024/01/04 05:10:31;;;;;;;0.65;0.65;;;7.10;99.90;;;;;;5036084;28;20198;-84
2024/01/04 05:12:59;;;;;;;0.95;0.60;;;7.10;99.90;;;;;;5035425;28;20211;-85
2024/01/04 05:15:27;;;;;;;0.50;0.40;;;7.00;99.90;;;;;;5035056;28;20211;-84
2024/01/04 05:17:54;;;;;;;0.60;0.60;;;7.00;99.90;;;;;;5034738;28;20199;-84
2024/01/04 05:20:21;;;;;;;0.40;0.38;;;6.90;99.90;;;;;;5035517;28;20627;-86
2024/01/04 05:22:48;;;;;;;0.40;0.40;;;6.90;99.90;;;;;;5034751;28;20196;-84
2024/01/04 05:25:15;;;;;;;0.40;0.40;;;6.90;99.90;;;;;;5034470;28;20713;-82
2024/01/04 05:27:42;;;;;;;0.50;0.50;;;6.90;99.90;;;;;;5034593;28;20195;-85
2024/01/04 05:30:10;;;;;;;0.40;0.40;;;6.80;99.90;;;;;;5035114;28;20196;-85
2024/01/04 05:32:38;;;;;;;2.65;0.65;;;6.80;99.90;;;;;;5034946;28;20203;-84
2024/01/04 05:35:06;;;;;;;0.40;0.30;;;6.80;99.90;;;;;;5034714;28;20212;-85
2024/01/04 05:37:33;;;;;;;3.00;2.80;;;6.80;99.90;;;;;;5034586;28;20195;-84
2024/01/04 05:40:00;;;;;;;0.40;0.40;;;6.80;99.90;;;;;;5034981;28;20652;-84
2024/01/04 05:42:26;;;;;;;0.40;0.40;;;6.80;99.90;;;;;;5034574;28;20702;-85
2024/01/04 05:44:53;;;;;;;0.40;0.40;;;6.80;99.90;;;;;;5034352;28;20222;-85
2024/01/04 05:47:20;;;;;;;0.40;0.40;;;6.80;99.90;;;;;;5034101;28;20196;-85
2024/01/04 05:49:48;;;;;;;0.40;0.40;;;6.80;99.90;;;;;;5034345;28;20200;-85
2024/01/04 05:52:15;;;;;;;0.40;0.40;;;6.80;99.90;;;;;;5034690;28;20203;-86
2024/01/04 05:54:41;;;;;;;0.50;0.50;;;6.80;99.90;;;;;;5034584;28;20215;-86
2024/01/04 05:57:08;;;;;;;0.40;0.40;;;6.80;99.90;;;;;;5034332;28;20203;-82
2024/01/04 05:59:35;;;;;;;0.40;0.40;;;6.90;99.90;;;;;;5034203;28;20214;-86
2024/01/04 06:02:02;;;;;;;0.40;0.40;;;6.90;99.90;;;;;;5033766;28;20848;-84
2024/01/04 06:04:28;;;;;;;0.40;0.40;;;6.90;99.90;;;;;;5020776;28;20212;-84
2024/01/04 06:06:57;;;;;;;0.40;0.40;;;6.90;99.90;;;;;;5013840;28;20224;-86
2024/01/04 06:09:24;;;;;;;0.40;0.40;;;6.90;99.90;;;;;;5005528;28;20188;-82
2024/01/04 06:11:51;;;;;;;0.40;0.40;;;6.90;99.90;;;;;;5014795;28;20261;-83
2024/01/04 06:14:18;;;;;;;0.40;0.40;;;7.00;99.90;;;;;;5013744;28;20217;-83
2024/01/04 06:16:45;;;;;;;0.40;0.40;;;7.00;99.90;;;;;;5013914;28;20193;-82
2024/01/04 06:19:12;;;;;;;0.40;0.40;;;7.00;99.90;;;;;;5014382;28;20207;-83
2024/01/04 06:21:38;;;;;;;0.40;0.30;;;7.00;99.90;;;;;;5013741;28;20192;-83
2024/01/04 06:24:07;;;;;;;0.40;0.40;;;7.00;99.90;;;;;;5022150;28;20342;-83
2024/01/04 06:26:34;;;;;;;0.70;0.63;;;7.10;99.90;;;;;;5032786;28;20211;-83
2024/01/04 06:29:00;;;;;;;0.40;0.40;;;7.10;99.90;;;;;;5033074;28;20219;-83
2024/01/04 06:31:27;;;;;;;0.40;0.40;;;7.10;99.90;;;;;;5033328;28;20271;-82
2024/01/04 06:33:54;;;;;;;0.40;0.40;;;7.10;99.90;;;;;;5033502;28;20215;-82
2024/01/04 06:36:21;;;;;;;0.40;0.30;;;7.20;99.90;;;;;;5032982;28;20188;-83
2024/01/04 06:38:47;;;;;;;0.40;0.40;;;7.20;99.90;;;;;;5032778;28;20195;-83
2024/01/04 06:41:15;;;;;;;0.47;0.38;;;7.20;99.90;;;;;;5033127;28;20663;-83
2024/01/04 06:43:42;;;;;;;0.40;0.30;;;7.20;99.90;;;;;;5027146;28;20224;-84
2024/01/04 06:46:09;;;;;;;0.40;0.40;;;7.30;99.90;;;;;;5014404;28;20224;-83
2024/01/04 06:48:36;;;;;;;6.45;6.18;;;7.30;99.90;;;;;;5013386;28;20193;-84
2024/01/04 06:51:03;;;;;;;0.40;0.40;;;7.30;99.90;;;;;;5016847;28;20207;-85
2024/01/04 06:53:29;;;;;;;0.40;0.30;;;7.30;99.90;;;;;;5016238;28;20201;-85
2024/01/04 06:55:56;;;;;;;0.40;0.40;;;7.30;99.90;;;;;;5016367;28;20268;-86
2024/01/04 06:58:24;;;;;;;0.70;0.70;;;7.30;99.90;;;;;;5016646;28;20200;-85
2024/01/04 07:00:52;;;;;;;0.40;0.40;;;7.30;99.90;;;;;;5016591;28;20564;-86
2024/01/04 07:03:20;;;;;;;1.20;1.13;;;7.30;99.90;;;;;;5035789;28;20203;-85
2024/01/04 07:05:47;;;;;;;1.02;0.60;;;7.30;99.90;;;;;;5036044;28;20215;-85
2024/01/04 07:08:13;;;;;;;1.90;0.82;;;7.30;99.90;;;;;;5035450;28;20199;-84
2024/01/04 07:10:40;;;;;;;2.70;1.55;;;7.40;99.90;;;;;;5036410;28;20207;-85
2024/01/04 07:13:07;;;;;;;1.45;1.45;;;7.40;99.90;;;;;;5035546;28;20203;-85
2024/01/04 07:15:35;;;;;;;0.40;0.40;;;7.40;99.90;;;;;;5032096;28;20204;-85
2024/01/04 07:18:02;;;;;;;1.35;1.25;;;7.50;99.90;;;;;;5024816;28;20610;-85
2024/01/04 07:20:29;;;;;;;0.77;0.77;;;7.50;99.90;;;;;;5034371;28;20197;-83
2024/01/04 07:22:56;;;;;;;1.15;1.05;;;7.50;99.90;;;;;;5027801;28;20705;-86
2024/01/04 07:25:23;;;;;;;0.50;0.50;;;7.50;99.90;;;;;;5030872;28;20683;-82
2024/01/04 07:27:50;;;;;;;0.80;0.80;;;7.50;99.90;;;;;;5024217;28;20199;-85
2024/01/04 07:30:17;;;;;;;0.40;0.40;;;7.40;99.90;;;;;;5017419;28;20268;-86
2024/01/04 07:32:45;;;;;;;0.90;0.90;;;7.40;99.90;;;;;;5016483;28;20283;-85
2024/01/04 07:35:13;;;;;;;0.93;0.93;;;7.40;99.90;;;;;;5016111;28;20216;-85
2024/01/04 07:37:40;;;;;;;2.40;1.90;;;7.40;99.90;;;;;;5015691;28;20204;-85
2024/01/04 07:40:08;;;;;;;0.60;0.60;;;7.40;99.90;;;;;;5034097;28;20203;-87
2024/01/04 07:42:35;;;;;;;0.98;0.98;;;7.40;99.90;;;;;;5037387;28;20246;-82
2024/01/04 07:45:01;;;;;;;1.15;1.05;;;7.40;99.90;;;;;;5039535;28;20211;-86
2024/01/04 07:47:28;;;;;;;0.50;0.40;;;7.50;99.90;;;;;;5040089;28;20269;-84
2024/01/04 07:49:56;;;;;;;0.40;0.40;;;7.50;99.90;;;;;;5038829;28;20200;-85
2024/01/04 07:52:23;;;;;;;10.75;2.42;;;7.50;99.90;;;;;;5037615;28;20199;-85
2024/01/04 07:54:50;;;;;;;1.63;0.70;;;7.50;99.90;;;;;;5036222;28;20222;-87
2024/01/04 07:57:16;;;;;;;0.50;0.50;;;7.50;99.90;;;;;;5020502;28;20569;-86
2024/01/04 07:59:43;;;;;;;0.40;0.38;;;7.50;99.90;;;;;;5019426;28;20200;-83
2024/01/04 08:02:10;;;;;;;0.40;0.30;;;7.60;99.90;;;;;;5022562;28;20200;-86
2024/01/04 08:04:36;;;;;;;0.70;0.70;;;7.60;99.90;;;;;;5022562;28;20212;-87
2024/01/04 08:07:05;;;;;;;0.40;0.40;;;7.60;99.90;;;;;;5038057;28;20208;-84
2024/01/04 08:09:31;;;;;;;0.40;0.40;;;7.50;99.90;;;;;;5040581;28;20195;-84
2024/01/04 08:11:58;;;;;;;0.65;0.65;;;7.50;99.90;;;;;;5040344;28;20192;-84
2024/01/04 08:14:25;;;;;;;9.90;4.22;;;7.60;99.90;;;;;;5018869;28;20655;-82
2024/01/04 08:16:52;;;;;;;2.95;2.15;;;7.50;99.90;;;;;;5018581;28;20611;-84
2024/01/04 08:19:18;;;;;;;0.60;0.60;;;7.50;99.90;;;;;;5019964;28;20208;-84
2024/01/04 08:21:45;;;;;;;1.02;0.82;;;7.60;99.90;;;;;;5034314;28;20188;-85
2024/01/04 08:24:13;;;;;;;0.40;0.40;;;7.60;99.90;;;;;;5040572;28;20219;-83
2024/01/04 08:26:42;;;;;;;2.05;1.42;;;7.60;99.90;;;;;;5035353;28;20208;-84
2024/01/04 08:29:09;;;;;;;0.40;0.40;;;7.60;99.90;;;;;;5028038;28;20191;-83
2024/01/04 08:31:36;;;;;;;0.40;0.40;;;7.60;99.90;;;;;;5010996;28;20196;-84
2024/01/04 08:34:03;;;;;;;0.70;0.70;;;7.50;99.90;;;;;;5035406;28;20239;-83
2024/01/04 08:36:30;;;;;;;1.60;0.75;;;7.50;99.90;;;;;;5038171;28;20199;-84
2024/01/04 08:38:57;;;;;;;1.20;1.20;;;7.50;99.90;;;;;;5041451;28;20192;-85
2024/01/04 08:41:26;;;;;;;0.50;0.50;;;7.50;99.90;;;;;;5039482;28;20291;-84
2024/01/04 08:43:53;;;;;;;0.40;0.40;;;7.50;99.90;;;;;;5038328;28;20235;-83
2024/01/04 08:46:19;;;;;;;1.05;0.80;;;7.50;99.90;;;;;;5038544;28;20219;-84
2024/01/04 08:48:45;;;;;;;0.40;0.40;;;7.60;99.90;;;;;;5024904;28;20683;-84
2024/01/04 08:51:12;;;;;;;0.40;0.40;;;7.60;99.90;;;;;;5018107;28;20192;-83
2024/01/04 08:53:40;;;;;;;0.70;0.68;;;7.60;99.90;;;;;;5018478;28;20435;-84
2024/01/04 08:56:08;;;;;;;1.90;1.63;;;7.60;99.90;;;;;;5018660;28;20227;-83
2024/01/04 08:58:36;;;;;;;0.40;0.40;;;7.60;99.90;;;;;;5017873;28;20620;-84
2024/01/04 09:01:04;;;;;;;0.40;0.40;;;7.50;99.90;;;;;;5024291;28;20196;-83
2024/01/04 09:03:32;;;;;;;0.40;0.40;;;7.50;99.90;;;;;;5023398;28;20664;-84
2024/01/04 09:05:58;;;;;;;2.25;1.95;;;7.50;99.90;;;;;;5017492;28;20213;-83
2024/01/04 09:08:26;;;;;;;0.85;0.82;;;7.50;99.90;;;;;;5018056;28;20204;-84
2024/01/04 09:10:53;;;;;;;2.05;0.50;;;7.50;99.90;;;;;;5016330;28;20317;-84
2024/01/04 09:13:20;;;;;;;4.22;2.47;;;7.60;99.90;;;;;;5015862;28;20222;-82
2024/01/04 09:15:48;;;;;;;0.88;0.70;;;7.60;99.90;;;;;;5017146;28;20193;-84
2024/01/04 09:18:15;;;;;;;0.40;0.40;;;7.50;99.90;;;;;;5017097;28;20200;-83
2024/01/04 09:20:41;;;;;;;1.02;0.52;;;7.60;99.90;;;;;;5016687;28;20201;-83
2024/01/04 09:23:08;;;;;;;0.82;0.82;;;7.60;99.90;;;;;;5016687;28;20276;-84
2024/01/04 09:25:35;;;;;;;0.50;0.50;;;7.60;99.90;;;;;;5017139;28;20239;-83
2024/01/04 09:28:02;;;;;;;0.40;0.40;;;7.60;99.90;;;;;;5016508;28;20193;-84
2024/01/04 09:30:30;;;;;;;1.25;1.15;;;7.70;99.90;;;;;;5016870;28;20551;-83
2024/01/04 09:32:58;;;;;;;2.17;1.65;;;7.60;99.90;;;;;;5017598;28;20196;-82
2024/01/04 09:35:25;;;;;;;0.40;0.32;;;7.60;99.90;;;;;;5027476;28;20224;-84
2024/01/04 09:37:52;;;;;;;1.50;1.40;;;7.60;99.90;;;;;;5036066;28;20184;-83
2024/01/04 09:40:20;;;;;;;0.50;0.40;;;7.70;99.90;;;;;;5036706;28;20202;-83
2024/01/04 09:42:51;;;;;;;0.40;0.30;;;7.70;99.90;;;;;;5036019;28;20318;-82
2024/01/04 09:45:21;;;;;;;1.35;1.05;;;7.80;99.90;;;;;;5036819;28;20223;-82
2024/01/04 09:47:51;;;;;;;0.93;0.93;;;7.80;99.90;;;;;;5036683;28;20262;-83
2024/01/04 09:50:19;;;;;;;0.98;0.45;;;7.90;99.90;;;;;;5028990;28;20225;-83
2024/01/04 09:52:46;;;;;;;0.50;0.50;;;7.80;99.90;;;;;;5016823;28;20193;-84
2024/01/04 09:55:13;;;;;;;0.93;0.93;;;7.90;99.90;;;;;;5016424;28;20599;-85
2024/01/04 09:57:41;;;;;;;1.15;1.15;;;7.90;99.90;;;;;;5014929;28;20238;-83
2024/01/04 10:00:09;;;;;;;0.80;0.80;;;7.90;99.90;;;;;;5015935;28;20215;-85
2024/01/04 10:02:41;;;;;;;1.45;1.35;;;8.00;99.90;;;;;;5014736;28;20197;-83
2024/01/04 10:05:10;;;;;;;0.50;0.50;;;8.00;99.90;;;;;;5016495;28;20236;-83
2024/01/04 10:07:44;;;;;;;0.55;0.55;;;8.00;99.90;;;;;;5015942;28;20277;-84
2024/01/04 10:10:18;;;;;;;0.40;0.40;;;8.00;99.90;;;;;;5008353;28;20197;-83
2024/01/04 10:12:44;;;;;;;0.88;0.88;;;8.00;99.90;;;;;;5015779;28;20671;-84
2024/01/04 10:15:15;;;;;;;1.52;1.05;;;8.00;99.90;;;;;;5015807;28;20216;-84
2024/01/04 10:17:44;;;;;;;0.40;0.40;;;8.00;99.90;;;;;;5022805;28;20226;-84
2024/01/04 10:20:11;;;;;;;1.73;1.63;;;8.10;99.90;;;;;;5022809;28;20234;-84
2024/01/04 10:22:41;;;;;;;0.68;0.68;;;8.00;99.90;;;;;;5021781;28;20197;-83
2024/01/04 10:25:09;;;;;;;0.40;0.40;;;7.90;99.90;;;;;;5021060;28;20216;-83
2024/01/04 10:27:36;;;;;;;0.52;0.52;;;7.90;99.90;;;;;;5033729;28;20219;-84
2024/01/04 10:30:04;;;;;;;0.40;0.40;;;7.90;99.90;;;;;;5026861;28;20611;-85
2024/01/04 10:32:31;;;;;;;1.15;0.88;;;7.90;99.90;;;;;;5026674;28;20219;-84
2024/01/04 10:35:04;;;;;;;0.70;0.70;;;7.90;99.90;;;;;;5020631;28;20234;-84
2024/01/04 10:37:32;;;;;;;0.40;0.40;;;8.00;99.90;;;;;;5024709;28;20191;-82
2024/01/04 10:40:03;;;;;;;0.40;0.40;;;8.20;99.90;;;;;;5020987;28;20192;-85
2024/01/04 10:42:30;;;;;;;0.40;0.40;;;8.30;99.90;;;;;;5021991;28;20329;-84
2024/01/04 10:44:58;;;;;;;0.47;0.47;;;8.40;99.90;;;;;;5018961;28;20216;-83
2024/01/04 10:47:27;;;;;;;0.40;0.40;;;8.40;99.90;;;;;;5028011;28;20319;-84
2024/01/04 10:49:58;;;;;;;0.40;0.40;;;8.50;99.90;;;;;;5033840;28;20217;-83
2024/01/04 10:52:29;;;;;;;0.40;0.40;;;8.60;99.90;;;;;;5033841;28;20567;-83
2024/01/04 10:54:58;;;;;;;4.53;2.75;;;8.60;99.90;;;;;;5020838;28;20914;-84
2024/01/04 10:57:28;;;;;;;0.57;0.57;;;8.50;99.90;;;;;;5030255;28;20267;-83
2024/01/04 10:59:56;;;;;;;0.60;0.60;;;8.50;99.90;;;;;;5033723;28;20200;-83
2024/01/04 11:02:23;;;;;;;0.40;0.40;;;8.60;99.90;;;;;;5033891;28;20203;-84
2024/01/04 11:04:51;;;;;;;2.05;1.35;;;8.60;99.90;;;;;;5033773;28;20208;-83
2024/01/04 11:07:19;;;;;;;0.40;0.40;;;8.70;99.90;;;;;;5034110;28;20281;-83
2024/01/04 11:09:47;;;;;;;0.50;0.50;;;8.70;99.90;;;;;;5032958;28;20192;-86
2024/01/04 11:12:15;;;;;;;0.40;0.40;;;8.70;99.90;;;;;;5034216;28;20191;-84
2024/01/04 11:14:43;;;;;;;1.10;0.88;;;8.60;99.90;;;;;;5034074;28;20223;-85
2024/01/04 11:17:29;;;;;;;0.40;0.40;;;8.60;99.90;;;;;;5032597;28;20214;-85
2024/01/04 11:20:14;;;;;;;0.73;0.73;;;8.50;99.90;;;;;;5032488;28;20187;-84
2024/01/04 11:23:04;;;;;;;0.40;0.40;;;8.50;99.90;;;;;;5032499;28;20583;-85
2024/01/04 11:25:47;;;;;;;0.70;0.70;;;8.50;99.90;;;;;;5031763;28;20222;-85
2024/01/04 11:28:15;;;;;;;0.57;0.57;;;8.50;99.90;;;;;;5012500;28;20220;-85
2024/01/04 11:30:43;;;;;;;0.40;0.30;;;8.40;99.90;;;;;;5012551;28;20211;-87
2024/01/04 11:33:10;;;;;;;1.73;1.63;;;8.40;99.90;;;;;;5012633;28;20192;-85
2024/01/04 11:35:37;;;;;;;0.40;0.40;;;8.50;99.90;;;;;;5015007;28;20232;-86
2024/01/04 11:38:07;;;;;;;1.38;0.95;;;8.50;99.90;;;;;;5021229;28;20650;-85
2024/01/04 11:40:37;;;;;;;0.40;0.40;;;8.50;99.90;;;;;;5036146;28;20603;-83
2024/01/04 11:43:14;;;;;;;1.40;1.30;;;8.50;99.90;;;;;;5031010;28;20192;-86
2024/01/04 11:45:44;;;;;;;0.40;0.40;;;8.50;99.90;;;;;;5024214;28;20719;-82
2024/01/04 11:48:11;;;;;;;0.73;0.73;;;8.40;99.90;;;;;;5015302;28;20217;-86
2024/01/04 11:50:47;;;;;;;0.40;0.40;;;8.40;99.90;;;;;;5015607;28;20206;-86
2024/01/04 11:53:14;;;;;;;0.50;0.50;;;8.30;99.90;;;;;;5015429;28;20254;-84
2024/01/04 11:55:41;;;;;;;1.50;1.40;;;8.40;99.90;;;;;;5015114;28;20220;-86
2024/01/04 11:58:10;;;;;;;0.93;0.70;;;8.40;99.90;;;;;;5023331;28;20189;-86
2024/01/04 12:00:38;;;;;;;0.40;0.40;;;8.40;99.90;;;;;;5032126;28;20203;-86
2024/01/04 12:03:13;;;;;;;0.40;0.40;;;8.40;99.90;;;;;;5015239;28;20228;-86
2024/01/04 12:05:42;;;;;;;0.40;0.40;;;8.50;99.90;;;;;;5015015;28;20242;-83
2024/01/04 12:08:09;;;;;;;0.40;0.40;;;8.50;99.90;;;;;;5015456;28;20726;-86
2024/01/04 12:10:35;;;;;;;0.40;0.40;;;8.50;99.90;;;;;;5015775;28;20215;-85
2024/01/04 12:13:02;;;;;;;0.73;0.73;;;8.50;99.90;;;;;;5015128;28;20200;-88
2024/01/04 12:15:29;;;;;;;1.20;0.73;;;8.50;99.90;;;;;;5015481;28;20619;-87
2024/01/04 12:17:56;;;;;;;0.50;0.50;;;8.50;99.90;;;;;;5007516;28;20196;-88
2024/01/04 12:20:24;;;;;;;2.28;1.27;;;8.60;99.90;;;;;;5030920;28;20198;-87
2024/01/04 12:22:51;;;;;;;0.52;0.52;;;8.60;99.90;;;;;;5035591;28;20202;-88
2024/01/04 12:25:18;;;;;;;1.33;1.33;;;8.60;99.90;;;;;;5034541;28;20216;-85
2024/01/04 12:27:45;;;;;;;0.40;0.40;;;8.50;99.90;;;;;;5023922;28;20311;-83
2024/01/04 12:30:12;;;;;;;0.73;0.73;;;8.50;99.90;;;;;;5015549;28;20571;-84
2024/01/04 12:32:40;;;;;;;1.77;0.82;;;8.50;99.90;;;;;;5023291;28;20199;-86
2024/01/04 12:35:15;;;;;;;0.60;0.60;;;8.50;99.90;;;;;;5019741;28;20222;-86
2024/01/04 12:37:44;;;;;;;0.40;0.30;;;8.40;99.90;;;;;;5034153;28;20195;-86
2024/01/04 12:40:12;;;;;;;0.40;0.38;;;8.40;99.90;;;;;;5025905;28;20275;-88
2024/01/04 12:42:40;;;;;;;0.90;0.82;;;8.30;99.90;;;;;;5017241;28;20695;-84
2024/01/04 12:45:09;;;;;;;1.35;1.25;;;8.40;99.90;;;;;;5014727;28;20399;-85
2024/01/04 12:47:37;;;;;;;0.40;0.40;;;8.30;99.90;;;;;;5014779;28;20213;-87
2024/01/04 12:50:05;;;;;;;0.40;0.40;;;8.30;99.90;;;;;;5015000;28;20629;-86
2024/01/04 12:52:31;;;;;;;0.43;0.43;;;8.30;99.90;;;;;;5015054;28;20247;-85
2024/01/04 12:54:59;;;;;;;0.50;0.50;;;8.30;99.90;;;;;;5011690;28;20307;-88
2024/01/04 12:57:26;;;;;;;0.40;0.40;;;8.30;99.90;;;;;;5019302;28;20202;-85
2024/01/04 12:59:53;;;;;;;2.67;1.58;;;8.40;99.90;;;;;;5020454;28;20200;-85